createdAt,value
2019-04-20T00:00:51.034Z,10.17
2019-04-20T00:03:18.210Z,12.03
2019-04-20T00:05:47.374Z,13.97
2019-04-20T00:08:22.642Z,11.80
2019-04-20T00:10:58.318Z,12.47
2019-04-20T00:13:28.601Z,12.33
2019-04-20T00:15:49.415Z,11.83
2019-04-20T00:18:19.188Z,12.00
2019-04-20T00:21:00.312Z,12.27
2019-04-20T00:23:42.057Z,12.77
2019-04-20T00:26:59.619Z,11.33
2019-04-20T00:29:21.715Z,11.67
2019-04-20T00:31:45.792Z,10.60
2019-04-20T00:34:12.163Z,12.27
2019-04-20T00:36:34.919Z,13.13
2019-04-20T00:39:08.119Z,11.93
2019-04-20T00:41:44.033Z,10.90
2019-04-20T00:44:13.040Z,13.43
2019-04-20T00:46:51.245Z,12.63
2019-04-20T00:49:29.232Z,10.60
2019-04-20T00:52:07.622Z,13.63
2019-04-20T00:54:11.627Z,12.63
2019-04-20T00:56:41.321Z,11.00
2019-04-20T00:59:25.286Z,11.77
2019-04-20T01:02:00.269Z,10.80
2019-04-20T01:04:29.905Z,12.37
2019-04-20T01:07:15.268Z,13.73
2019-04-20T01:09:47.892Z,12.17
2019-04-20T01:12:23.313Z,10.83
2019-04-20T01:14:53.950Z,10.90
2019-04-20T01:17:19.873Z,12.17
2019-04-20T01:19:52.674Z,13.53
2019-04-20T01:22:24.100Z,14.60
2019-04-20T01:24:52.032Z,12.93
2019-04-20T01:27:32.216Z,11.20
2019-04-20T01:30:03.373Z,13.20
2019-04-20T01:32:35.320Z,12.30
2019-04-20T01:35:11.601Z,11.23
2019-04-20T01:37:39.450Z,13.77
2019-04-20T01:40:02.338Z,14.60
2019-04-20T01:42:30.064Z,14.03
2019-04-20T01:45:00.274Z,13.33
2019-04-20T01:47:36.265Z,13.00
2019-04-20T01:50:08.462Z,11.60
2019-04-20T01:52:48.247Z,12.33
2019-04-20T01:55:32.934Z,13.27
2019-04-20T01:58:12.356Z,11.77
2019-04-20T02:00:57.279Z,18.13
2019-04-20T02:03:46.699Z,12.17
2019-04-20T02:06:18.213Z,13.87
2019-04-20T02:08:51.700Z,12.53
2019-04-20T02:11:25.444Z,11.57
2019-04-20T02:13:55.007Z,15.63
2019-04-20T02:16:28.607Z,11.40
2019-04-20T02:19:29.113Z,11.70
2019-04-20T02:22:17.099Z,14.03
2019-04-20T02:24:36.979Z,13.73
2019-04-20T02:27:06.177Z,15.20
2019-04-20T02:30:02.531Z,13.53
2019-04-20T02:35:35.554Z,13.90
2019-04-20T02:38:12.131Z,12.87
2019-04-20T02:40:46.592Z,13.33
2019-04-20T02:43:15.189Z,14.63
2019-04-20T02:45:40.338Z,12.70
2019-04-20T02:48:09.998Z,14.03
2019-04-20T02:50:59.543Z,11.73
2019-04-20T02:53:41.184Z,13.73
2019-04-20T02:56:12.516Z,15.73
2019-04-20T02:58:45.578Z,11.90
2019-04-20T03:01:07.090Z,10.90
2019-04-20T03:03:25.200Z,13.10
2019-04-20T03:06:08.541Z,12.43
2019-04-20T03:08:54.571Z,13.07
2019-04-20T03:11:48.263Z,14.17
2019-04-20T03:14:12.281Z,12.13
2019-04-20T03:16:56.531Z,14.13
2019-04-20T03:19:25.010Z,12.77
2019-04-20T03:23:05.147Z,14.33
2019-04-20T03:25:49.736Z,12.87
2019-04-20T03:28:18.385Z,11.00
2019-04-20T03:31:36.683Z,11.80
2019-04-20T03:34:03.324Z,11.67
2019-04-20T03:36:18.317Z,13.33
2019-04-20T03:38:38.324Z,12.50
2019-04-20T03:41:03.973Z,11.87
2019-04-20T03:43:22.275Z,10.73
2019-04-20T03:45:59.473Z,10.57
2019-04-20T03:48:45.261Z,14.23
2019-04-20T03:51:28.030Z,11.30
2019-04-20T03:54:19.869Z,14.17
2019-04-20T03:57:27.660Z,12.77
2019-04-20T04:00:13.089Z,13.00
2019-04-20T04:03:08.442Z,12.83
2019-04-20T04:05:47.995Z,11.80
2019-04-20T04:08:19.196Z,15.57
2019-04-20T04:11:17.330Z,12.20
2019-04-20T04:13:27.205Z,13.07
2019-04-20T04:16:02.529Z,13.17
2019-04-20T04:18:33.277Z,12.60
2019-04-20T04:21:03.836Z,13.40
2019-04-20T04:23:48.699Z,10.20
2019-04-20T04:26:22.295Z,10.97
2019-04-20T04:28:48.959Z,14.57
2019-04-20T04:31:28.157Z,14.33
2019-04-20T04:34:02.367Z,12.40
2019-04-20T04:36:43.233Z,12.20
2019-04-20T04:39:19.644Z,11.07
2019-04-20T04:41:55.983Z,13.20
2019-04-20T04:44:33.555Z,14.53
2019-04-20T04:47:07.035Z,11.87
2019-04-20T04:49:40.990Z,13.63
2019-04-20T04:52:12.660Z,11.17
2019-04-20T04:54:53.637Z,12.70
2019-04-20T04:57:26.785Z,17.00
2019-04-20T04:59:57.255Z,14.07
2019-04-20T05:02:33.601Z,11.57
2019-04-20T05:05:50.413Z,12.10
2019-04-20T05:08:15.446Z,11.47
2019-04-20T05:10:39.175Z,14.00
2019-04-20T05:13:26.834Z,15.70
2019-04-20T05:16:10.974Z,13.60
2019-04-20T05:18:51.431Z,12.97
2019-04-20T05:21:31.289Z,10.60
2019-04-20T05:24:22.622Z,12.10
2019-04-20T05:27:07.277Z,13.60
2019-04-20T05:29:30.407Z,14.43
2019-04-20T05:32:07.339Z,13.73
2019-04-20T05:34:58.381Z,13.07
2019-04-20T05:37:34.356Z,13.40
2019-04-20T05:39:59.006Z,13.97
2019-04-20T05:42:31.421Z,14.50
2019-04-20T05:44:55.953Z,12.03
2019-04-20T05:47:36.204Z,14.80
2019-04-20T05:49:56.953Z,15.23
2019-04-20T05:55:14.422Z,12.80
2019-04-20T05:58:18.099Z,13.63
2019-04-20T06:01:25.215Z,15.60
2019-04-20T06:03:48.814Z,14.47
2019-04-20T06:06:28.902Z,14.23
2019-04-20T06:09:18.240Z,12.03
2019-04-20T06:12:07.872Z,15.47
2019-04-20T06:14:39.218Z,11.93
2019-04-20T06:17:23.832Z,15.43
2019-04-20T06:20:02.325Z,13.40
2019-04-20T06:22:45.607Z,14.20
2019-04-20T06:25:53.207Z,15.87
2019-04-20T06:28:12.829Z,10.10
2019-04-20T06:31:05.632Z,12.73
2019-04-20T06:37:09.517Z,13.03
2019-04-20T06:39:54.436Z,15.97
2019-04-20T06:42:41.088Z,10.40
2019-04-20T06:45:33.787Z,12.63
2019-04-20T06:48:29.309Z,14.23
2019-04-20T06:50:49.267Z,11.93
2019-04-20T06:53:46.966Z,10.90
2019-04-20T06:56:29.525Z,14.10
2019-04-20T06:59:12.564Z,10.70
2019-04-20T07:02:02.882Z,12.73
2019-04-20T07:07:11.595Z,11.77
2019-04-20T07:09:47.421Z,12.20
2019-04-20T07:12:06.394Z,9.77
2019-04-20T07:14:35.897Z,12.00
2019-04-20T07:17:31.691Z,12.07
2019-04-20T07:20:12.881Z,14.00
2019-04-20T07:23:18.177Z,10.60
2019-04-20T07:25:43.198Z,11.20
2019-04-20T07:28:14.322Z,10.63
2019-04-20T07:30:45.413Z,17.33
2019-04-20T07:33:23.893Z,11.87
2019-04-20T07:36:32.545Z,12.80
2019-04-20T07:39:26.420Z,12.70
2019-04-20T07:42:19.167Z,12.47
2019-04-20T07:44:48.827Z,10.70
2019-04-20T07:49:49.781Z,12.97
2019-04-20T07:52:06.496Z,19.83
2019-04-20T07:57:42.834Z,12.07
2019-04-20T08:00:35.465Z,15.50
2019-04-20T08:03:33.767Z,12.10
2019-04-20T08:06:13.625Z,14.37
2019-04-20T08:08:53.182Z,9.30
2019-04-20T08:11:38.014Z,12.57
2019-04-20T08:14:22.838Z,12.77
2019-04-20T08:17:14.387Z,17.53
2019-04-20T08:19:36.734Z,9.80
2019-04-20T08:22:23.056Z,15.20
2019-04-20T08:24:44.005Z,11.47
2019-04-20T08:27:21.317Z,11.50
2019-04-20T08:30:22.861Z,9.53
2019-04-20T08:33:19.489Z,13.47
2019-04-20T08:36:09.152Z,12.30
2019-04-20T08:39:08.358Z,11.80
2019-04-20T08:41:31.632Z,12.00
2019-04-20T08:44:21.690Z,16.05
2019-04-20T08:47:01.349Z,10.85
2019-04-20T08:49:31.085Z,10.10
2019-04-20T08:52:01.699Z,10.40
2019-04-20T08:54:23.282Z,13.47
2019-04-20T08:56:45.174Z,13.00
2019-04-20T08:59:11.679Z,12.50
2019-04-20T09:01:48.971Z,11.50
2019-04-20T09:04:32.448Z,10.97
2019-04-20T09:07:05.548Z,12.43
2019-04-20T09:10:10.092Z,9.20
2019-04-20T09:12:31.954Z,11.70
2019-04-20T09:14:46.518Z,14.67
2019-04-20T09:18:03.691Z,15.00
2019-04-20T09:20:46.252Z,15.73
2019-04-20T09:24:10.541Z,15.00
2019-04-20T09:26:37.116Z,11.17
2019-04-20T09:29:03.159Z,9.67
2019-04-20T09:31:53.019Z,12.57
2019-04-20T09:34:51.722Z,11.67
2019-04-20T09:37:51.108Z,11.53
2019-04-20T09:40:50.757Z,15.80
2019-04-20T09:43:37.312Z,12.47
2019-04-20T09:46:11.803Z,13.13
2019-04-20T09:48:49.131Z,10.73
2019-04-20T09:51:54.111Z,11.90
2019-04-20T09:54:27.082Z,13.10
2019-04-20T09:56:59.275Z,10.93
2019-04-20T09:59:28.371Z,10.93
2019-04-20T10:01:59.696Z,9.50
2019-04-20T10:04:21.542Z,11.90
2019-04-20T10:07:15.836Z,14.57
2019-04-20T10:09:47.395Z,11.73
2019-04-20T10:12:17.822Z,9.37
2019-04-20T10:22:52.127Z,12.83
2019-04-20T10:25:44.717Z,13.27
2019-04-20T10:28:33.861Z,14.30
2019-04-20T10:31:06.392Z,14.17
2019-04-20T10:33:41.523Z,10.03
2019-04-20T10:37:04.284Z,13.73
2019-04-20T10:39:36.292Z,13.70
2019-04-20T10:42:06.047Z,12.03
2019-04-20T10:44:36.690Z,16.03
2019-04-20T10:47:27.279Z,9.33
2019-04-20T10:50:00.843Z,9.50
2019-04-20T10:55:18.741Z,11.93
2019-04-20T10:57:51.502Z,12.50
2019-04-20T11:00:42.268Z,10.37
2019-04-20T11:03:13.442Z,11.60
2019-04-20T11:06:04.978Z,10.33
2019-04-20T11:09:01.036Z,14.07
2019-04-20T11:11:52.508Z,14.57
2019-04-20T11:14:29.740Z,9.13
2019-04-20T11:17:31.748Z,10.90
2019-04-20T11:20:03.280Z,9.33
2019-04-20T11:22:32.906Z,11.27
2019-04-20T11:25:02.238Z,12.30
2019-04-20T11:27:38.431Z,10.13
2019-04-20T11:30:16.288Z,10.90
2019-04-20T11:32:53.990Z,10.17
2019-04-20T11:35:39.232Z,10.87
2019-04-20T11:38:26.145Z,11.40
2019-04-20T11:41:18.176Z,10.85
2019-04-20T11:44:09.561Z,11.20
2019-04-20T11:46:58.731Z,11.00
2019-04-20T11:49:27.943Z,13.57
2019-04-20T11:51:59.465Z,9.77
2019-04-20T11:54:48.524Z,10.87
2019-04-20T11:57:27.178Z,11.13
2019-04-20T11:59:59.100Z,10.45
2019-04-20T12:02:58.633Z,11.70
2019-04-20T12:05:35.173Z,11.53
2019-04-20T12:08:25.065Z,11.10
2019-04-20T12:11:21.639Z,11.40
2019-04-20T12:13:34.647Z,12.75
2019-04-20T12:16:07.977Z,10.03
2019-04-20T12:18:42.143Z,11.57
2019-04-20T12:21:14.797Z,10.20
2019-04-20T12:23:44.644Z,11.20
2019-04-20T12:26:24.867Z,11.47
2019-04-20T12:28:54.304Z,10.93
2019-04-20T12:31:31.599Z,12.93
2019-04-20T12:34:02.181Z,10.43
2019-04-20T12:36:31.595Z,10.53
2019-04-20T12:39:22.307Z,10.13
2019-04-20T12:42:11.261Z,10.37
2019-04-20T12:44:57.692Z,14.10
2019-04-20T12:47:49.708Z,11.97
2019-04-20T12:50:39.724Z,11.80
2019-04-20T12:53:18.202Z,9.67
2019-04-20T12:55:50.844Z,9.47
2019-04-20T12:58:43.000Z,10.87
2019-04-20T13:06:09.948Z,9.90
2019-04-20T13:08:44.408Z,10.63
2019-04-20T13:11:44.139Z,10.67
2019-04-20T13:14:38.177Z,10.67
2019-04-20T13:17:08.323Z,11.13
2019-04-20T13:20:16.118Z,10.60
2019-04-20T13:22:50.791Z,9.27
2019-04-20T13:25:26.298Z,11.40
2019-04-20T13:27:58.871Z,9.20
2019-04-20T13:30:36.039Z,9.60
2019-04-20T13:33:05.936Z,10.83
2019-04-20T13:35:36.378Z,11.07
2019-04-20T13:38:25.833Z,10.13
2019-04-20T13:41:11.673Z,10.57
2019-04-20T13:43:45.971Z,12.00
2019-04-20T13:46:18.781Z,10.00
2019-04-20T13:49:09.157Z,9.43
2019-04-20T13:51:41.044Z,10.60
2019-04-20T13:54:13.844Z,12.70
2019-04-20T13:56:41.819Z,10.93
2019-04-20T13:59:30.027Z,9.33
2019-04-20T14:02:28.897Z,12.13
2019-04-20T14:05:02.742Z,10.45
2019-04-20T14:07:33.450Z,11.43
2019-04-20T14:10:03.727Z,10.13
2019-04-20T14:12:58.694Z,10.27
2019-04-20T14:15:27.285Z,9.17
2019-04-20T14:18:15.601Z,9.60
2019-04-20T14:20:47.836Z,10.23
2019-04-20T14:23:37.167Z,9.83
2019-04-20T14:26:18.868Z,10.40
2019-04-20T14:29:07.394Z,9.53
2019-04-20T14:31:43.571Z,10.17
2019-04-20T14:34:17.251Z,8.90
2019-04-20T14:36:46.736Z,9.30
2019-04-20T14:39:16.250Z,8.57
2019-04-20T14:41:49.361Z,9.63
2019-04-20T14:44:21.603Z,11.10
2019-04-20T14:46:51.654Z,9.97
2019-04-20T14:49:20.980Z,8.83
2019-04-20T14:51:50.288Z,8.27
2019-04-20T14:54:21.465Z,11.90
2019-04-20T15:02:15.621Z,9.10
2019-04-20T15:04:45.353Z,9.23
2019-04-20T15:07:14.998Z,10.55
2019-04-20T15:09:44.704Z,9.17
2019-04-20T15:12:14.935Z,7.95
2019-04-20T15:14:44.901Z,8.13
2019-04-20T15:17:19.466Z,11.50
2019-04-20T15:20:03.501Z,9.15
2019-04-20T15:22:35.986Z,9.17
2019-04-20T15:25:05.519Z,8.83
2019-04-20T15:27:35.232Z,10.35
2019-04-20T15:30:04.884Z,9.13
2019-04-20T15:32:34.121Z,8.73
2019-04-20T15:35:04.754Z,9.10
2019-04-20T15:37:35.150Z,11.75
2019-04-20T15:55:01.810Z,10.20
2019-04-20T15:57:33.128Z,8.58
2019-04-20T16:00:04.628Z,8.43
2019-04-20T16:02:39.039Z,8.27
2019-04-20T16:05:18.625Z,8.33
2019-04-20T16:07:53.094Z,8.10
2019-04-20T16:10:19.302Z,9.33
2019-04-20T16:12:56.573Z,10.60
2019-04-20T16:15:19.871Z,8.37
2019-04-20T16:17:53.004Z,8.00
2019-04-20T16:20:23.532Z,8.67
2019-04-20T16:22:52.343Z,10.67
2019-04-20T16:25:31.892Z,9.13
2019-04-20T16:28:03.513Z,10.10
2019-04-20T16:30:33.786Z,8.73
2019-04-20T16:33:03.132Z,10.67
2019-04-20T16:35:32.568Z,11.67
2019-04-20T16:38:02.569Z,12.03
2019-04-20T16:40:32.033Z,14.10
2019-04-20T16:43:02.527Z,11.38
2019-04-20T16:45:32.986Z,13.32
2019-04-20T16:48:03.860Z,12.00
2019-04-20T16:50:35.189Z,11.95
2019-04-20T16:53:04.711Z,14.63
2019-04-20T16:55:34.887Z,10.40
2019-04-20T16:58:04.192Z,9.83
2019-04-20T17:00:33.571Z,10.20
2019-04-20T17:03:02.768Z,12.73
2019-04-20T17:05:31.992Z,9.20
2019-04-20T17:08:02.751Z,10.03
2019-04-20T17:10:32.777Z,10.53
2019-04-20T17:13:02.273Z,9.20
2019-04-20T17:15:31.799Z,9.40
2019-04-20T17:18:01.452Z,11.00
2019-04-20T17:20:30.970Z,11.97
2019-04-20T17:23:00.406Z,9.43
2019-04-20T17:25:32.234Z,10.87
2019-04-20T17:28:30.825Z,9.13
2019-04-20T17:31:17.616Z,8.97
2019-04-20T17:34:04.985Z,10.53
2019-04-20T17:36:31.139Z,11.47
2019-04-20T17:39:03.730Z,11.40
2019-04-20T17:41:48.871Z,10.37
2019-04-20T17:44:19.903Z,10.70
2019-04-20T17:46:44.365Z,9.73
2019-04-20T17:49:15.920Z,9.73
2019-04-20T17:51:58.078Z,10.57
2019-04-20T17:54:23.730Z,8.70
2019-04-20T17:56:54.304Z,9.20
2019-04-20T17:59:24.266Z,8.90
2019-04-20T18:02:32.825Z,11.27
2019-04-20T18:05:20.403Z,9.93
2019-04-20T18:07:48.237Z,7.93
2019-04-20T18:10:11.386Z,9.97
2019-04-20T18:12:35.230Z,9.43
2019-04-20T18:15:15.302Z,8.87
2019-04-20T18:18:07.172Z,10.47
2019-04-20T18:20:25.273Z,9.93
2019-04-20T18:22:56.877Z,8.87
2019-04-20T18:25:52.645Z,7.83
2019-04-20T18:28:12.907Z,9.73
2019-04-20T18:30:46.008Z,14.67
2019-04-20T18:33:05.388Z,11.37
2019-04-20T18:35:42.171Z,8.40
2019-04-20T18:38:09.734Z,9.07
2019-04-20T18:40:49.323Z,8.57
2019-04-20T18:43:16.350Z,10.00
2019-04-20T18:45:58.217Z,7.23
2019-04-20T18:48:32.125Z,10.67
2019-04-20T18:50:43.852Z,9.57
2019-04-20T18:53:18.624Z,9.37
2019-04-20T18:55:51.546Z,7.30
2019-04-20T18:58:13.642Z,10.33
2019-04-20T19:00:50.143Z,8.07
2019-04-20T19:03:25.255Z,9.07
2019-04-20T19:05:47.598Z,10.57
2019-04-20T19:08:18.027Z,9.37
2019-04-20T19:10:55.567Z,9.67
2019-04-20T19:13:28.439Z,9.75
2019-04-20T19:16:27.556Z,10.70
2019-04-20T19:19:24.254Z,10.63
2019-04-20T19:21:45.941Z,10.05
2019-04-20T19:24:18.311Z,8.35
2019-04-20T19:26:51.522Z,9.20
2019-04-20T19:29:26.421Z,10.18
2019-04-20T19:32:07.609Z,10.93
2019-04-20T19:34:37.826Z,9.83
2019-04-20T19:37:04.080Z,13.08
2019-04-20T19:39:32.131Z,10.60
2019-04-20T19:42:01.726Z,10.50
2019-04-20T19:44:40.238Z,11.40
2019-04-20T19:47:15.363Z,11.40
2019-04-20T19:49:35.716Z,12.67
2019-04-20T19:52:25.202Z,15.30
2019-04-20T19:54:46.723Z,12.58
2019-04-20T19:57:16.223Z,14.70
2019-04-20T19:59:35.608Z,11.63
2019-04-20T20:02:00.199Z,13.03
2019-04-20T20:04:32.214Z,15.93
2019-04-20T20:07:04.022Z,14.78
2019-04-20T20:09:37.301Z,15.75
2019-04-20T20:12:05.096Z,15.30
2019-04-20T20:14:39.027Z,15.38
2019-04-20T20:17:26.864Z,18.03
2019-04-20T20:20:13.099Z,19.30
2019-04-20T20:22:19.360Z,20.20
2019-04-20T20:24:40.969Z,20.67
2019-04-20T20:27:23.150Z,19.47
2019-04-20T20:29:54.229Z,18.12
2019-04-20T20:32:20.128Z,21.17
2019-04-20T20:34:50.595Z,20.08
2019-04-20T20:37:27.275Z,29.90
2019-04-20T20:40:02.152Z,43.13
2019-04-20T20:42:30.932Z,64.77
2019-04-20T20:44:55.087Z,35.17
2019-04-20T20:47:41.409Z,23.05
2019-04-20T20:50:15.558Z,24.77
2019-04-20T20:52:39.658Z,30.47
2019-04-20T20:55:03.795Z,45.08
2019-04-20T20:57:37.058Z,31.05
2019-04-20T21:00:04.675Z,23.60
2019-04-20T21:02:39.159Z,23.32
2019-04-20T21:04:59.644Z,24.27
2019-04-20T21:07:29.121Z,26.57
2019-04-20T21:09:58.720Z,26.62
2019-04-20T21:12:28.827Z,25.92
2019-04-20T21:15:00.373Z,24.07
2019-04-20T21:17:39.288Z,25.92
2019-04-20T21:20:18.283Z,27.22
2019-04-20T21:22:51.699Z,30.72
2019-04-20T21:25:03.496Z,26.48
2019-04-20T21:27:32.991Z,28.95
2019-04-20T21:30:04.002Z,27.25
2019-04-20T21:32:41.721Z,26.77
2019-04-20T21:35:07.226Z,26.73
2019-04-20T21:37:35.150Z,26.30
2019-04-20T21:40:17.301Z,27.98
2019-04-20T21:42:46.328Z,27.22
2019-04-20T21:45:16.709Z,29.35
2019-04-20T21:47:41.789Z,29.63
2019-04-20T21:50:26.763Z,27.58
2019-04-20T21:52:46.473Z,26.95
2019-04-20T21:55:12.373Z,33.57
2019-04-20T21:57:46.182Z,32.67
2019-04-20T22:00:25.170Z,29.90
2019-04-20T22:02:56.166Z,28.87
2019-04-20T22:05:17.167Z,28.83
2019-04-20T22:07:48.405Z,29.57
2019-04-20T22:10:22.935Z,30.63
2019-04-20T22:12:55.705Z,29.67
2019-04-20T22:15:27.108Z,29.13
2019-04-20T22:17:52.524Z,28.57
2019-04-20T22:20:32.167Z,28.63
2019-04-20T22:23:05.776Z,29.47
2019-04-20T22:25:42.611Z,31.37
2019-04-20T22:27:58.511Z,32.60
2019-04-20T22:30:26.315Z,30.73
2019-04-20T22:32:59.479Z,30.83
2019-04-20T22:35:28.301Z,30.57
2019-04-20T22:38:08.903Z,28.87
2019-04-20T22:40:36.713Z,32.23
2019-04-20T22:43:06.510Z,32.33
2019-04-20T22:45:39.737Z,32.93
2019-04-20T22:48:10.450Z,31.90
2019-04-20T22:50:50.942Z,31.33
2019-04-20T22:53:22.635Z,31.10
2019-04-20T22:56:01.191Z,30.13
2019-04-20T22:58:25.001Z,31.57
2019-04-20T23:00:50.222Z,32.57
2019-04-20T23:03:12.763Z,34.63
2019-04-20T23:05:42.729Z,34.33
2019-04-20T23:08:12.943Z,33.87
2019-04-20T23:10:45.972Z,36.47
2019-04-20T23:13:13.775Z,32.13
2019-04-20T23:15:50.091Z,31.33
2019-04-20T23:18:18.153Z,34.17
2019-04-20T23:20:50.088Z,33.97
2019-04-20T23:23:22.417Z,36.87
2019-04-20T23:25:51.344Z,33.73
2019-04-20T23:28:22.526Z,33.90
2019-04-20T23:30:59.812Z,34.80
2019-04-20T23:33:25.610Z,35.60
2019-04-20T23:35:58.231Z,33.03
2019-04-20T23:38:26.460Z,32.30
2019-04-20T23:40:55.708Z,33.87
2019-04-20T23:43:35.083Z,34.33
2019-04-20T23:46:41.149Z,32.40
2019-04-20T23:49:27.248Z,31.27
2019-04-20T23:52:24.800Z,35.17
2019-04-20T23:54:27.877Z,33.23
2019-04-20T23:56:55.642Z,31.53
2019-04-20T23:59:32.456Z,30.03
